Los Angeles, California
Traffic Map
Current Weather Conditions
Los Angeles, California
Few Clouds
Few Clouds
17°
Feels Like: 17°
Wind Chill: 17° Ceiling: Unl
Heat Index: 17° Visibility: 10mi
Dew Point: 14° Wind: 0mph
Humidity: 86% Direction: ° ()
Pressure: 29.94in Gusts: 0mph
Raw Report DataKCQT 311147Z AUTO 00000KT 10SM FEW024 17/14 A2994 RMK AO2 SLP137 T01670144 10189 20167 58006
Traffic Incident Summary
Active as of:
Severity:
Category:
InformationThere was an issue retrieving the traffic information for this location. Please try a different location or try again shortly.
Advertisements
Track Severe Weather on mobile